sensor_id;sensor_type;location;lat;lon;timestamp;pressure;altitude;pressure_sealevel;temperature;humidity
59055;BME280;44845;51.444;7.460;2023-01-27T00:00:42;100411.84;;;2.54;80.09
59055;BME280;44845;51.444;7.460;2023-01-27T00:03:10;100414.97;;;2.70;79.88
59055;BME280;44845;51.444;7.460;2023-01-27T00:05:37;100414.00;;;2.94;79.53
59055;BME280;44845;51.444;7.460;2023-01-27T00:08:02;100415.75;;;2.95;78.78
59055;BME280;44845;51.444;7.460;2023-01-27T00:10:27;100409.28;;;3.10;78.31
59055;BME280;44845;51.444;7.460;2023-01-27T00:12:53;100414.81;;;2.93;78.28
59055;BME280;44845;51.444;7.460;2023-01-27T00:15:37;100411.19;;;3.14;77.81
59055;BME280;44845;51.444;7.460;2023-01-27T00:18:02;100412.63;;;3.06;78.29
59055;BME280;44845;51.444;7.460;2023-01-27T00:20:28;100406.28;;;3.23;78.02
59055;BME280;44845;51.444;7.460;2023-01-27T00:23:16;100416.50;;;3.19;77.82
59055;BME280;44845;51.444;7.460;2023-01-27T00:26:02;100417.16;;;3.11;77.58
59055;BME280;44845;51.444;7.460;2023-01-27T00:28:31;100411.47;;;3.23;77.71
59055;BME280;44845;51.444;7.460;2023-01-27T00:30:57;100414.47;;;3.10;77.65
59055;BME280;44845;51.444;7.460;2023-01-27T00:33:23;100412.59;;;3.32;77.29
59055;BME280;44845;51.444;7.460;2023-01-27T00:35:56;100406.38;;;3.26;77.61
59055;BME280;44845;51.444;7.460;2023-01-27T00:38:21;100421.41;;;3.09;77.37
59055;BME280;44845;51.444;7.460;2023-01-27T00:40:46;100418.56;;;3.01;78.08
59055;BME280;44845;51.444;7.460;2023-01-27T00:43:32;100422.63;;;3.21;78.09
59055;BME280;44845;51.444;7.460;2023-01-27T00:45:57;100428.53;;;3.17;77.15
59055;BME280;44845;51.444;7.460;2023-01-27T00:48:22;100418.91;;;2.85;79.08
59055;BME280;44845;51.444;7.460;2023-01-27T00:50:48;100422.94;;;2.50;80.44
59055;BME280;44845;51.444;7.460;2023-01-27T00:53:13;100417.94;;;2.56;80.68
59055;BME280;44845;51.444;7.460;2023-01-27T00:55:38;100425.13;;;2.39;81.35
59055;BME280;44845;51.444;7.460;2023-01-27T00:58:04;100421.59;;;2.62;81.10
59055;BME280;44845;51.444;7.460;2023-01-27T01:00:29;100429.94;;;2.28;82.27
59055;BME280;44845;51.444;7.460;2023-01-27T01:02:54;100428.13;;;2.25;82.72
59055;BME280;44845;51.444;7.460;2023-01-27T01:05:20;100431.00;;;2.33;82.72
59055;BME280;44845;51.444;7.460;2023-01-27T01:07:45;100447.78;;;2.20;83.33
59055;BME280;44845;51.444;7.460;2023-01-27T01:10:10;100443.97;;;2.10;83.13
59055;BME280;44845;51.444;7.460;2023-01-27T01:12:36;100457.66;;;2.06;83.06
59055;BME280;44845;51.444;7.460;2023-01-27T01:15:01;100445.13;;;1.94;83.69
59055;BME280;44845;51.444;7.460;2023-01-27T01:17:26;100454.81;;;2.00;83.13
59055;BME280;44845;51.444;7.460;2023-01-27T01:19:52;100452.72;;;2.14;82.68
59055;BME280;44845;51.444;7.460;2023-01-27T01:22:17;100452.19;;;2.23;82.30
59055;BME280;44845;51.444;7.460;2023-01-27T01:24:42;100449.38;;;2.17;82.06
59055;BME280;44845;51.444;7.460;2023-01-27T01:27:08;100452.47;;;2.31;81.41
59055;BME280;44845;51.444;7.460;2023-01-27T01:29:33;100450.06;;;2.35;81.14
59055;BME280;44845;51.444;7.460;2023-01-27T01:31:58;100455.66;;;2.48;81.20
59055;BME280;44845;51.444;7.460;2023-01-27T01:34:24;100456.00;;;2.08;81.88
59055;BME280;44845;51.444;7.460;2023-01-27T01:36:49;100462.22;;;2.13;82.43
59055;BME280;44845;51.444;7.460;2023-01-27T01:39:15;100461.38;;;2.14;82.53
59055;BME280;44845;51.444;7.460;2023-01-27T01:41:40;100466.56;;;2.14;82.74
59055;BME280;44845;51.444;7.460;2023-01-27T01:44:24;100471.50;;;2.08;82.73
59055;BME280;44845;51.444;7.460;2023-01-27T01:46:49;100475.94;;;1.88;83.88
59055;BME280;44845;51.444;7.460;2023-01-27T01:49:17;100473.41;;;1.89;84.24
59055;BME280;44845;51.444;7.460;2023-01-27T01:51:45;100473.91;;;1.57;84.27
59055;BME280;44845;51.444;7.460;2023-01-27T01:54:23;100484.81;;;1.72;84.46
59055;BME280;44845;51.444;7.460;2023-01-27T01:56:54;100476.72;;;1.62;84.56
59055;BME280;44845;51.444;7.460;2023-01-27T01:59:25;100473.13;;;1.59;84.22
59055;BME280;44845;51.444;7.460;2023-01-27T02:01:53;100471.53;;;1.85;83.83
59055;BME280;44845;51.444;7.460;2023-01-27T02:04:23;100478.88;;;1.97;83.60
59055;BME280;44845;51.444;7.460;2023-01-27T02:09:41;100476.34;;;1.99;83.20
59055;BME280;44845;51.444;7.460;2023-01-27T02:12:06;100478.69;;;1.93;83.23
59055;BME280;44845;51.444;7.460;2023-01-27T02:14:32;100472.75;;;1.95;82.93
59055;BME280;44845;51.444;7.460;2023-01-27T02:16:57;100459.72;;;2.17;82.24
59055;BME280;44845;51.444;7.460;2023-01-27T02:22:27;100464.25;;;2.22;81.37
59055;BME280;44845;51.444;7.460;2023-01-27T02:24:59;100454.34;;;2.35;81.01
59055;BME280;44845;51.444;7.460;2023-01-27T02:27:29;100458.28;;;2.50;80.18
59055;BME280;44845;51.444;7.460;2023-01-27T02:29:54;100459.56;;;2.36;80.37
59055;BME280;44845;51.444;7.460;2023-01-27T02:32:26;100461.78;;;2.50;80.50
59055;BME280;44845;51.444;7.460;2023-01-27T02:34:52;100458.16;;;2.71;80.02
59055;BME280;44845;51.444;7.460;2023-01-27T02:37:20;100468.44;;;2.43;80.32
59055;BME280;44845;51.444;7.460;2023-01-27T02:39:45;100468.84;;;2.56;80.38
59055;BME280;44845;51.444;7.460;2023-01-27T02:42:14;100469.44;;;2.47;80.86
59055;BME280;44845;51.444;7.460;2023-01-27T02:44:41;100468.44;;;2.43;80.82
59055;BME280;44845;51.444;7.460;2023-01-27T02:47:06;100462.28;;;2.40;80.77
59055;BME280;44845;51.444;7.460;2023-01-27T02:49:31;100467.28;;;2.35;81.62
59055;BME280;44845;51.444;7.460;2023-01-27T02:51:57;100468.22;;;2.12;81.76
59055;BME280;44845;51.444;7.460;2023-01-27T02:54:26;100471.56;;;2.10;82.49
59055;BME280;44845;51.444;7.460;2023-01-27T02:56:52;100473.50;;;2.16;82.31
59055;BME280;44845;51.444;7.460;2023-01-27T02:59:17;100470.16;;;2.18;82.03
59055;BME280;44845;51.444;7.460;2023-01-27T03:01:43;100462.31;;;2.17;82.46
59055;BME280;44845;51.444;7.460;2023-01-27T03:04:08;100461.38;;;2.14;82.43
59055;BME280;44845;51.444;7.460;2023-01-27T03:06:36;100462.16;;;2.36;82.17
59055;BME280;44845;51.444;7.460;2023-01-27T03:09:01;100455.13;;;2.32;81.84
59055;BME280;44845;51.444;7.460;2023-01-27T03:11:27;100450.91;;;2.36;81.72
59055;BME280;44845;51.444;7.460;2023-01-27T03:14:11;100455.13;;;2.32;81.71
59055;BME280;44845;51.444;7.460;2023-01-27T03:16:36;100455.16;;;2.34;81.48
59055;BME280;44845;51.444;7.460;2023-01-27T03:19:20;100452.03;;;2.18;81.71
59055;BME280;44845;51.444;7.460;2023-01-27T03:21:45;100453.56;;;2.38;81.71
59055;BME280;44845;51.444;7.460;2023-01-27T03:24:15;100459.03;;;2.21;81.43
59055;BME280;44845;51.444;7.460;2023-01-27T03:26:40;100454.91;;;2.26;81.93
59055;BME280;44845;51.444;7.460;2023-01-27T03:29:06;100459.78;;;2.18;81.75
59055;BME280;44845;51.444;7.460;2023-01-27T03:31:49;100467.31;;;2.36;81.55
59055;BME280;44845;51.444;7.460;2023-01-27T03:34:14;100466.28;;;2.31;81.93
59055;BME280;44845;51.444;7.460;2023-01-27T03:36:40;100464.91;;;2.17;81.98
59055;BME280;44845;51.444;7.460;2023-01-27T03:39:24;100468.00;;;2.06;82.47
59055;BME280;44845;51.444;7.460;2023-01-27T03:42:08;100467.91;;;2.28;82.21
59055;BME280;44845;51.444;7.460;2023-01-27T03:44:51;100458.19;;;2.22;82.52
59055;BME280;44845;51.444;7.460;2023-01-27T03:47:35;100457.81;;;2.35;82.22
59055;BME280;44845;51.444;7.460;2023-01-27T03:50:01;100461.19;;;2.33;81.96
59055;BME280;44845;51.444;7.460;2023-01-27T03:52:26;100459.97;;;2.23;82.38
59055;BME280;44845;51.444;7.460;2023-01-27T03:54:51;100468.53;;;2.22;82.60
59055;BME280;44845;51.444;7.460;2023-01-27T03:57:17;100465.59;;;2.35;82.51
59055;BME280;44845;51.444;7.460;2023-01-27T03:59:42;100464.53;;;2.30;83.03
59055;BME280;44845;51.444;7.460;2023-01-27T04:02:08;100467.00;;;2.27;83.02
59055;BME280;44845;51.444;7.460;2023-01-27T04:04:51;100468.06;;;2.32;82.51
59055;BME280;44845;51.444;7.460;2023-01-27T04:07:36;100459.19;;;2.50;82.66
59055;BME280;44845;51.444;7.460;2023-01-27T04:10:04;100470.69;;;2.58;81.55
59055;BME280;44845;51.444;7.460;2023-01-27T04:12:30;100466.44;;;2.36;82.66
59055;BME280;44845;51.444;7.460;2023-01-27T04:14:56;100462.06;;;2.33;82.39
59055;BME280;44845;51.444;7.460;2023-01-27T04:17:21;100467.66;;;2.46;82.89
59055;BME280;44845;51.444;7.460;2023-01-27T04:19:47;100465.19;;;2.49;82.47
59055;BME280;44845;51.444;7.460;2023-01-27T04:22:13;100467.66;;;2.46;82.54
59055;BME280;44845;51.444;7.460;2023-01-27T04:24:42;100466.28;;;2.56;82.67
59055;BME280;44845;51.444;7.460;2023-01-27T04:27:13;100470.19;;;2.44;82.80
59055;BME280;44845;51.444;7.460;2023-01-27T04:29:40;100473.44;;;2.39;83.13
59055;BME280;44845;51.444;7.460;2023-01-27T04:32:08;100473.63;;;2.43;83.08
59055;BME280;44845;51.444;7.460;2023-01-27T04:34:34;100482.22;;;2.42;83.21
59055;BME280;44845;51.444;7.460;2023-01-27T04:37:00;100476.25;;;2.45;82.81
59055;BME280;44845;51.444;7.460;2023-01-27T04:39:27;100476.91;;;2.39;83.39
59055;BME280;44845;51.444;7.460;2023-01-27T04:41:52;100487.44;;;2.44;83.56
59055;BME280;44845;51.444;7.460;2023-01-27T04:44:18;100482.88;;;2.36;83.76
59055;BME280;44845;51.444;7.460;2023-01-27T04:46:45;100477.25;;;2.24;84.16
59055;BME280;44845;51.444;7.460;2023-01-27T04:49:10;100479.13;;;2.28;84.00
59055;BME280;44845;51.444;7.460;2023-01-27T04:51:36;100485.13;;;2.27;84.05
59055;BME280;44845;51.444;7.460;2023-01-27T04:54:01;100476.72;;;2.33;84.16
59055;BME280;44845;51.444;7.460;2023-01-27T04:56:39;100486.38;;;2.39;83.82
59055;BME280;44845;51.444;7.460;2023-01-27T04:59:07;100486.28;;;2.35;84.35
59055;BME280;44845;51.444;7.460;2023-01-27T05:01:32;100491.47;;;2.35;84.03
59055;BME280;44845;51.444;7.460;2023-01-27T05:03:58;100491.47;;;2.35;84.22
59055;BME280;44845;51.444;7.460;2023-01-27T05:06:24;100491.16;;;2.51;83.88
59055;BME280;44845;51.444;7.460;2023-01-27T05:08:50;100498.41;;;2.36;84.02
59055;BME280;44845;51.444;7.460;2023-01-27T05:11:16;100492.63;;;2.44;83.79
59055;BME280;44845;51.444;7.460;2023-01-27T05:13:41;100499.41;;;2.40;83.93
59055;BME280;44845;51.444;7.460;2023-01-27T05:16:17;100500.06;;;2.34;84.16
59055;BME280;44845;51.444;7.460;2023-01-27T05:18:45;100503.69;;;2.40;84.07
59055;BME280;44845;51.444;7.460;2023-01-27T05:21:22;100502.47;;;2.54;83.66
59055;BME280;44845;51.444;7.460;2023-01-27T05:23:48;100502.34;;;2.76;82.97
59055;BME280;44845;51.444;7.460;2023-01-27T05:26:16;100498.97;;;2.52;83.02
59055;BME280;44845;51.444;7.460;2023-01-27T05:28:44;100497.31;;;2.54;83.42
59055;BME280;44845;51.444;7.460;2023-01-27T05:31:15;100512.06;;;2.32;84.11
59055;BME280;44845;51.444;7.460;2023-01-27T05:33:43;100507.22;;;2.42;83.96
59055;BME280;44845;51.444;7.460;2023-01-27T05:36:14;100518.44;;;2.18;84.76
59055;BME280;44845;51.444;7.460;2023-01-27T05:38:40;100514.81;;;2.37;84.67
59055;BME280;44845;51.444;7.460;2023-01-27T05:41:08;100521.09;;;2.44;84.56
59055;BME280;44845;51.444;7.460;2023-01-27T05:43:35;100517.28;;;2.58;83.71
59055;BME280;44845;51.444;7.460;2023-01-27T05:46:04;100518.56;;;2.70;83.18
59055;BME280;44845;51.444;7.460;2023-01-27T05:48:29;100524.28;;;2.61;83.34
59055;BME280;44845;51.444;7.460;2023-01-27T05:50:56;100530.03;;;2.52;83.79
59055;BME280;44845;51.444;7.460;2023-01-27T05:53:22;100528.69;;;2.64;83.42
59055;BME280;44845;51.444;7.460;2023-01-27T05:55:48;100529.72;;;2.43;84.16
59055;BME280;44845;51.444;7.460;2023-01-27T05:58:14;100530.22;;;2.34;84.35
59055;BME280;44845;51.444;7.460;2023-01-27T06:00:39;100525.41;;;2.43;84.50
59055;BME280;44845;51.444;7.460;2023-01-27T06:03:04;100525.47;;;2.45;84.23
59055;BME280;44845;51.444;7.460;2023-01-27T06:05:30;100520.50;;;2.51;83.82
59055;BME280;44845;51.444;7.460;2023-01-27T06:07:55;100523.84;;;2.48;83.99
59055;BME280;44845;51.444;7.460;2023-01-27T06:10:20;100526.72;;;2.56;83.87
59055;BME280;44845;51.444;7.460;2023-01-27T06:12:46;100527.16;;;2.69;83.04
59055;BME280;44845;51.444;7.460;2023-01-27T06:15:11;100530.69;;;2.71;82.96
59055;BME280;44845;51.444;7.460;2023-01-27T06:17:36;100533.56;;;2.79;83.21
59055;BME280;44845;51.444;7.460;2023-01-27T06:20:02;100529.84;;;2.97;82.11
59055;BME280;44845;51.444;7.460;2023-01-27T06:22:27;100532.34;;;2.95;82.03
59055;BME280;44845;51.444;7.460;2023-01-27T06:24:53;100534.63;;;2.86;82.07
59055;BME280;44845;51.444;7.460;2023-01-27T06:27:18;100524.31;;;3.12;81.96
59055;BME280;44845;51.444;7.460;2023-01-27T06:29:43;100535.59;;;3.14;81.53
59055;BME280;44845;51.444;7.460;2023-01-27T06:32:09;100537.66;;;2.98;81.35
59055;BME280;44845;51.444;7.460;2023-01-27T06:34:34;100541.38;;;2.80;82.45
59055;BME280;44845;51.444;7.460;2023-01-27T06:36:59;100547.59;;;2.86;82.16
59055;BME280;44845;51.444;7.460;2023-01-27T06:39:25;100543.25;;;2.85;82.28
59055;BME280;44845;51.444;7.460;2023-01-27T06:41:50;100552.69;;;2.58;83.55
59055;BME280;44845;51.444;7.460;2023-01-27T06:44:16;100550.91;;;2.81;83.29
59055;BME280;44845;51.444;7.460;2023-01-27T06:46:41;100550.44;;;2.67;83.16
59055;BME280;44845;51.444;7.460;2023-01-27T06:49:06;100558.25;;;2.69;83.22
59055;BME280;44845;51.444;7.460;2023-01-27T06:51:32;100557.44;;;2.70;83.52
59055;BME280;44845;51.444;7.460;2023-01-27T06:53:57;100554.44;;;2.84;83.34
59055;BME280;44845;51.444;7.460;2023-01-27T06:56:22;100558.69;;;2.81;83.24
59055;BME280;44845;51.444;7.460;2023-01-27T06:58:48;100568.03;;;3.02;82.88
59055;BME280;44845;51.444;7.460;2023-01-27T07:01:13;100570.63;;;3.02;83.04
59055;BME280;44845;51.444;7.460;2023-01-27T07:03:38;100563.66;;;3.00;83.06
59055;BME280;44845;51.444;7.460;2023-01-27T07:06:04;100570.00;;;3.10;82.57
59055;BME280;44845;51.444;7.460;2023-01-27T07:08:29;100569.94;;;2.82;83.06
59055;BME280;44845;51.444;7.460;2023-01-27T07:10:55;100576.97;;;2.62;83.89
59055;BME280;44845;51.444;7.460;2023-01-27T07:13:20;100577.31;;;2.71;84.00
59055;BME280;44845;51.444;7.460;2023-01-27T07:15:45;100575.28;;;2.87;83.67
59055;BME280;44845;51.444;7.460;2023-01-27T07:18:11;100584.38;;;2.75;83.70
59055;BME280;44845;51.444;7.460;2023-01-27T07:20:38;100582.16;;;2.62;84.38
59055;BME280;44845;51.444;7.460;2023-01-27T07:23:04;100578.53;;;2.56;84.90
59055;BME280;44845;51.444;7.460;2023-01-27T07:25:31;100591.72;;;2.40;85.51
59055;BME280;44845;51.444;7.460;2023-01-27T07:27:58;100588.28;;;2.64;85.13
59055;BME280;44845;51.444;7.460;2023-01-27T07:30:24;100588.75;;;2.53;85.25
59055;BME280;44845;51.444;7.460;2023-01-27T07:32:49;100586.72;;;2.44;85.94
59055;BME280;44845;51.444;7.460;2023-01-27T07:35:16;100585.78;;;2.42;86.66
59055;BME280;44845;51.444;7.460;2023-01-27T07:37:42;100592.75;;;2.68;85.95
59055;BME280;44845;51.444;7.460;2023-01-27T07:40:08;100585.19;;;2.74;85.30
59055;BME280;44845;51.444;7.460;2023-01-27T07:42:34;100582.28;;;2.89;85.03
59055;BME280;44845;51.444;7.460;2023-01-27T07:44:59;100586.97;;;2.75;84.66
59055;BME280;44845;51.444;7.460;2023-01-27T07:47:25;100592.75;;;2.68;85.13
59055;BME280;44845;51.444;7.460;2023-01-27T07:49:50;100587.19;;;2.81;84.92
59055;BME280;44845;51.444;7.460;2023-01-27T07:52:15;100593.47;;;2.88;85.10
59055;BME280;44845;51.444;7.460;2023-01-27T07:54:41;100595.59;;;2.76;85.22
59055;BME280;44845;51.444;7.460;2023-01-27T07:57:06;100596.50;;;2.76;84.72
59055;BME280;44845;51.444;7.460;2023-01-27T07:59:32;100590.75;;;2.85;84.58
59055;BME280;44845;51.444;7.460;2023-01-27T08:01:57;100596.94;;;2.89;84.11
59055;BME280;44845;51.444;7.460;2023-01-27T08:04:22;100598.91;;;2.96;84.12
59055;BME280;44845;51.444;7.460;2023-01-27T08:06:48;100595.31;;;2.92;84.31
59055;BME280;44845;51.444;7.460;2023-01-27T08:09:13;100604.00;;;2.93;84.44
59055;BME280;44845;51.444;7.460;2023-01-27T08:11:38;100601.47;;;2.95;84.39
59055;BME280;44845;51.444;7.460;2023-01-27T08:14:04;100606.97;;;2.79;84.77
59055;BME280;44845;51.444;7.460;2023-01-27T08:16:29;100610.00;;;2.67;85.51
59055;BME280;44845;51.444;7.460;2023-01-27T08:18:55;100608.41;;;2.71;85.08
59055;BME280;44845;51.444;7.460;2023-01-27T08:21:21;100603.66;;;2.59;86.00
59055;BME280;44845;51.444;7.460;2023-01-27T08:23:46;100609.94;;;2.66;85.97
59055;BME280;44845;51.444;7.460;2023-01-27T08:26:11;100610.78;;;2.65;86.19
59055;BME280;44845;51.444;7.460;2023-01-27T08:28:39;100606.41;;;2.64;86.30
59055;BME280;44845;51.444;7.460;2023-01-27T08:31:10;100608.13;;;2.88;85.75
59055;BME280;44845;51.444;7.460;2023-01-27T08:33:36;100614.91;;;2.84;85.25
59055;BME280;44845;51.444;7.460;2023-01-27T08:36:08;100616.56;;;3.07;84.66
59055;BME280;44845;51.444;7.460;2023-01-27T08:38:34;100618.41;;;2.85;84.89
59055;BME280;44845;51.444;7.460;2023-01-27T08:41:03;100617.78;;;2.92;85.23
59055;BME280;44845;51.444;7.460;2023-01-27T08:43:29;100621.47;;;2.99;84.75
59055;BME280;44845;51.444;7.460;2023-01-27T08:45:54;100627.81;;;2.83;84.31
59055;BME280;44845;51.444;7.460;2023-01-27T08:48:21;100617.66;;;2.89;85.23
59055;BME280;44845;51.444;7.460;2023-01-27T08:50:46;100616.84;;;2.90;85.17
59055;BME280;44845;51.444;7.460;2023-01-27T08:53:12;100617.19;;;2.99;84.79
59055;BME280;44845;51.444;7.460;2023-01-27T08:55:37;100623.50;;;3.08;84.53
59055;BME280;44845;51.444;7.460;2023-01-27T08:58:03;100628.03;;;2.89;84.69
59055;BME280;44845;51.444;7.460;2023-01-27T09:00:28;100625.50;;;2.90;84.52
59055;BME280;44845;51.444;7.460;2023-01-27T09:02:53;100629.00;;;2.92;84.75
59055;BME280;44845;51.444;7.460;2023-01-27T09:05:19;100638.16;;;3.58;91.23
59055;BME280;44845;51.444;7.460;2023-01-27T09:07:45;100633.16;;;3.90;87.15
59055;BME280;44845;51.444;7.460;2023-01-27T09:10:11;100632.06;;;4.11;82.44
59055;BME280;44845;51.444;7.460;2023-01-27T09:12:37;100633.09;;;4.46;83.33
59055;BME280;44845;51.444;7.460;2023-01-27T09:15:02;100632.34;;;4.21;80.06
59055;BME280;44845;51.444;7.460;2023-01-27T09:17:28;100643.19;;;3.79;80.87
59055;BME280;44845;51.444;7.460;2023-01-27T09:19:53;100649.38;;;3.57;82.15
59055;BME280;44845;51.444;7.460;2023-01-27T09:22:19;100653.00;;;3.62;82.38
59055;BME280;44845;51.444;7.460;2023-01-27T09:24:44;100648.88;;;3.41;82.94
59055;BME280;44845;51.444;7.460;2023-01-27T09:27:10;100655.78;;;3.42;83.39
59055;BME280;44845;51.444;7.460;2023-01-27T09:29:35;100656.31;;;3.32;83.62
59055;BME280;44845;51.444;7.460;2023-01-27T09:32:01;100662.97;;;3.25;84.03
59055;BME280;44845;51.444;7.460;2023-01-27T09:34:27;100672.59;;;3.28;83.93
59055;BME280;44845;51.444;7.460;2023-01-27T09:37:04;100672.75;;;3.08;84.72
59055;BME280;44845;51.444;7.460;2023-01-27T09:39:34;100670.47;;;3.17;84.45
59055;BME280;44845;51.444;7.460;2023-01-27T09:42:14;100680.19;;;2.98;84.60
59055;BME280;44845;51.444;7.460;2023-01-27T09:50:14;100679.47;;;3.02;84.91
59055;BME280;44845;51.444;7.460;2023-01-27T09:58:39;100678.22;;;3.15;84.97
59055;BME280;44845;51.444;7.460;2023-01-27T10:01:23;100695.03;;;3.02;85.85
59055;BME280;44845;51.444;7.460;2023-01-27T10:12:10;100692.63;;;3.07;85.57
59055;BME280;44845;51.444;7.460;2023-01-27T10:14:50;100684.84;;;3.07;85.29
59055;BME280;44845;51.444;7.460;2023-01-27T10:28:14;100689.84;;;3.02;86.17
59055;BME280;44845;51.444;7.460;2023-01-27T10:33:20;100693.22;;;3.00;86.33
59055;BME280;44845;51.444;7.460;2023-01-27T10:36:05;100695.84;;;3.24;85.52
59055;BME280;44845;51.444;7.460;2023-01-27T10:39:01;100694.88;;;3.22;85.46
59055;BME280;44845;51.444;7.460;2023-01-27T10:44:31;100690.44;;;2.95;86.02
59055;BME280;44845;51.444;7.460;2023-01-27T10:47:18;100687.69;;;2.90;86.65
59055;BME280;44845;51.444;7.460;2023-01-27T10:49:59;100694.00;;;2.97;86.65
59055;BME280;44845;51.444;7.460;2023-01-27T10:52:31;100690.41;;;2.93;87.09
59055;BME280;44845;51.444;7.460;2023-01-27T10:55:12;100692.66;;;3.09;86.67
59055;BME280;44845;51.444;7.460;2023-01-27T10:58:04;100688.81;;;2.97;86.86
59055;BME280;44845;51.444;7.460;2023-01-27T11:00:39;100694.78;;;3.19;86.72
59055;BME280;44845;51.444;7.460;2023-01-27T11:05:50;100683.69;;;3.49;85.84
59055;BME280;44845;51.444;7.460;2023-01-27T11:08:18;100676.00;;;3.51;84.75
59055;BME280;44845;51.444;7.460;2023-01-27T11:10:48;100680.63;;;3.35;84.78
59055;BME280;44845;51.444;7.460;2023-01-27T11:13:34;100679.13;;;3.42;84.72
59055;BME280;44845;51.444;7.460;2023-01-27T11:16:00;100671.81;;;3.30;85.48
59055;BME280;44845;51.444;7.460;2023-01-27T11:18:29;100671.50;;;3.21;85.94
59055;BME280;44845;51.444;7.460;2023-01-27T11:21:00;100668.06;;;3.46;85.52
59055;BME280;44845;51.444;7.460;2023-01-27T11:23:34;100664.31;;;3.64;84.63
59055;BME280;44845;51.444;7.460;2023-01-27T11:28:41;100663.00;;;3.77;83.88
59055;BME280;44845;51.444;7.460;2023-01-27T11:34:04;100665.03;;;3.60;83.86
59055;BME280;44845;51.444;7.460;2023-01-27T11:36:32;100665.66;;;3.53;83.91
59055;BME280;44845;51.444;7.460;2023-01-27T11:38:58;100671.66;;;3.52;84.13
59055;BME280;44845;51.444;7.460;2023-01-27T11:41:25;100663.72;;;3.47;84.23
59055;BME280;44845;51.444;7.460;2023-01-27T11:43:51;100668.25;;;3.53;84.05
59055;BME280;44845;51.444;7.460;2023-01-27T11:46:20;100667.66;;;3.35;84.13
59055;BME280;44845;51.444;7.460;2023-01-27T11:48:52;100660.13;;;3.17;84.28
59055;BME280;44845;51.444;7.460;2023-01-27T11:51:29;100664.75;;;3.26;84.93
59055;BME280;44845;51.444;7.460;2023-01-27T11:54:17;100663.84;;;3.50;84.22
59055;BME280;44845;51.444;7.460;2023-01-27T11:56:47;100661.63;;;3.61;83.48
59055;BME280;44845;51.444;7.460;2023-01-27T11:59:17;100665.50;;;3.48;83.64
59055;BME280;44845;51.444;7.460;2023-01-27T12:07:13;100655.13;;;3.48;84.08
59055;BME280;44845;51.444;7.460;2023-01-27T12:09:41;100662.13;;;3.51;84.12
59055;BME280;44845;51.444;7.460;2023-01-27T12:14:35;100649.47;;;3.60;83.86
59055;BME280;44845;51.444;7.460;2023-01-27T12:17:01;100647.34;;;3.74;83.38
59055;BME280;44845;51.444;7.460;2023-01-27T12:19:31;100642.94;;;3.71;82.98
59055;BME280;44845;51.444;7.460;2023-01-27T12:22:01;100641.66;;;3.58;83.45
59055;BME280;44845;51.444;7.460;2023-01-27T12:24:33;100648.66;;;3.61;83.36
59055;BME280;44845;51.444;7.460;2023-01-27T12:27:00;100647.66;;;3.57;82.00
59055;BME280;44845;51.444;7.460;2023-01-27T12:29:39;100644.28;;;3.60;82.83
59055;BME280;44845;51.444;7.460;2023-01-27T12:32:13;100640.78;;;3.58;82.38
59055;BME280;44845;51.444;7.460;2023-01-27T12:34:43;100643.88;;;3.47;83.01
59055;BME280;44845;51.444;7.460;2023-01-27T12:37:19;100644.69;;;3.72;82.08
59055;BME280;44845;51.444;7.460;2023-01-27T12:39:50;100637.31;;;3.59;82.08
59055;BME280;44845;51.444;7.460;2023-01-27T12:45:27;100630.44;;;3.86;80.91
59055;BME280;44845;51.444;7.460;2023-01-27T12:50:32;100633.88;;;3.86;80.37
59055;BME280;44845;51.444;7.460;2023-01-27T12:53:17;100630.53;;;3.63;80.51
59055;BME280;44845;51.444;7.460;2023-01-27T12:55:45;100631.63;;;3.43;81.52
59055;BME280;44845;51.444;7.460;2023-01-27T12:58:30;100635.88;;;3.67;81.18
59055;BME280;44845;51.444;7.460;2023-01-27T13:00:57;100640.88;;;3.61;80.34
59055;BME280;44845;51.444;7.460;2023-01-27T13:03:24;100636.31;;;3.54;80.37
59055;BME280;44845;51.444;7.460;2023-01-27T13:05:55;100637.25;;;3.56;80.93
59055;BME280;44845;51.444;7.460;2023-01-27T13:08:22;100640.53;;;3.52;81.37
59055;BME280;44845;51.444;7.460;2023-01-27T13:10:51;100631.34;;;3.62;81.19
59055;BME280;44845;51.444;7.460;2023-01-27T13:13:22;100632.66;;;3.75;81.27
59055;BME280;44845;51.444;7.460;2023-01-27T13:16:04;100638.72;;;3.75;80.14
59055;BME280;44845;51.444;7.460;2023-01-27T13:18:35;100636.28;;;3.80;80.38
59055;BME280;44845;51.444;7.460;2023-01-27T13:21:12;100636.69;;;3.92;80.67
59055;BME280;44845;51.444;7.460;2023-01-27T13:23:39;100643.44;;;3.87;79.71
59055;BME280;44845;51.444;7.460;2023-01-27T13:26:09;100639.84;;;3.56;80.23
59055;BME280;44845;51.444;7.460;2023-01-27T13:34:32;100646.78;;;3.31;80.67
59055;BME280;44845;51.444;7.460;2023-01-27T13:37:17;100658.13;;;3.34;81.07
59055;BME280;44845;51.444;7.460;2023-01-27T13:42:23;100655.47;;;3.33;80.19
59055;BME280;44845;51.444;7.460;2023-01-27T13:45:02;100662.22;;;3.28;79.97
59055;BME280;44845;51.444;7.460;2023-01-27T13:47:44;100663.09;;;3.28;80.87
59055;BME280;44845;51.444;7.460;2023-01-27T13:52:58;100668.94;;;3.22;80.37
59055;BME280;44845;51.444;7.460;2023-01-27T13:55:34;100673.88;;;3.14;81.18
59055;BME280;44845;51.444;7.460;2023-01-27T13:58:13;100662.66;;;3.15;81.33
59055;BME280;44845;51.444;7.460;2023-01-27T14:11:54;100678.84;;;3.59;78.42
59055;BME280;44845;51.444;7.460;2023-01-27T14:19:59;100678.22;;;3.40;79.01
59055;BME280;44845;51.444;7.460;2023-01-27T14:25:41;100679.75;;;3.35;78.71
59055;BME280;44845;51.444;7.460;2023-01-27T14:28:20;100687.81;;;3.18;78.76
59055;BME280;44845;51.444;7.460;2023-01-27T14:30:55;100677.69;;;3.24;79.23
59055;BME280;44845;51.444;7.460;2023-01-27T14:33:59;100676.53;;;3.42;78.88
59055;BME280;44845;51.444;7.460;2023-01-27T14:36:52;100674.03;;;3.44;78.67
59055;BME280;44845;51.444;7.460;2023-01-27T14:39:38;100670.13;;;3.57;78.12
59055;BME280;44845;51.444;7.460;2023-01-27T14:42:26;100676.97;;;3.55;77.54
59055;BME280;44845;51.444;7.460;2023-01-27T14:53:43;100670.13;;;3.83;78.23